Time;durP1;ratioP1;P1;durP2;ratioP2;P2;SDS_P1;SDS_P2;PMS_P1;PMS_P2;Temp;Humidity;BMP_temperature;BMP_pressure;BME280_temperature;BME280_humidity;BME280_pressure;Samples;Min_cycle;Max_cycle;Signal;HPM_P1;HPM_P2
2020/05/13 00:01:55;;;;;;;5.1;4.6;;;;;;;7.97;80.49121;932.6722;;;;
2020/05/13 00:04:18;;;;;;;5.2;4.7;;;;;;;8.05;80.07715;932.7765;;;;
2020/05/13 00:06:49;;;;;;;4.9;4.5;;;;;;;7.96;80.20801;932.8315;;;;
2020/05/13 00:11:38;;;;;;;5.3;4.8;;;;;;;7.88;80.4873;932.6809;;;;
2020/05/13 00:14:03;;;;;;;5.4;4.9;;;;;;;7.85;80.74219;932.6861;;;;
2020/05/13 00:16:34;;;;;;;5.7;4.7;;;;;;;7.91;80.50586;932.6116;;;;
2020/05/13 00:18:55;;;;;;;5.7;4.8;;;;;;;7.92;81.62891;932.5901;;;;
2020/05/13 00:21:20;;;;;;;6.2;4.8;;;;;;;7.98;80.98438;932.6264;;;;
2020/05/13 00:25:28;;;;;;;5.6;5.1;;;;;;;7.94;80.87402;932.5111;;;;
2020/05/13 00:28:04;;;;;;;5.8;5.3;;;;;;;7.98;80.86914;932.5217;;;;
2020/05/13 00:30:24;;;;;;;5.7;5.2;;;;;;;7.92;80.42773;932.5038;;;;
2020/05/13 00:32:58;;;;;;;5.5;5;;;;;;;7.92;80.55078;932.5466;;;;
2020/05/13 00:35:31;;;;;;;5.3;4.8;;;;;;;7.89;80.33008;932.49;;;;
2020/05/13 00:37:44;;;;;;;5.2;4.7;;;;;;;7.91;80.35645;932.468;;;;
2020/05/13 00:40:29;;;;;;;5.2;4.5;;;;;;;7.95;80.33105;932.4604;;;;
2020/05/13 00:42:43;;;;;;;4.7;4.3;;;;;;;7.98;80.14258;932.341;;;;
2020/05/13 00:45:00;;;;;;;4.6;4.1;;;;;;;7.87;80.41797;932.4019;;;;
2020/05/13 00:47:37;;;;;;;4.6;4.2;;;;;;;7.84;80.57031;932.3198;;;;
2020/05/13 00:49:56;;;;;;;4.7;4.3;;;;;;;7.91;80.25391;932.3016;;;;
2020/05/13 00:52:12;;;;;;;5.6;4.3;;;;;;;7.85;80.29883;932.3073;;;;
2020/05/13 00:54:37;;;;;;;5;4.5;;;;;;;7.81;80.51953;932.3744;;;;
2020/05/13 00:57:02;;;;;;;4.9;4.4;;;;;;;7.89;80.28516;932.3442;;;;
2020/05/13 00:59:29;;;;;;;4.6;4.2;;;;;;;7.92;80.63086;932.377;;;;
2020/05/13 01:01:54;;;;;;;4.8;4.4;;;;;;;7.89;80.80664;932.2689;;;;
2020/05/13 01:04:19;;;;;;;5;4.3;;;;;;;7.81;80.73535;932.4155;;;;
2020/05/13 01:06:44;;;;;;;4.3;3.9;;;;;;;7.79;80.52734;932.4197;;;;
2020/05/13 01:09:09;;;;;;;4.5;4.1;;;;;;;7.76;81.67773;932.3909;;;;
2020/05/13 01:11:34;;;;;;;4.5;4.1;;;;;;;7.8;80.6875;932.3818;;;;
2020/05/13 01:14:00;;;;;;;5.6;4.4;;;;;;;7.67;81.45605;932.2505;;;;
2020/05/13 01:16:25;;;;;;;4.8;4.4;;;;;;;7.81;80.72363;932.2543;;;;
2020/05/13 01:18:56;;;;;;;5.5;4.2;;;;;;;7.83;80.57031;932.3317;;;;
2020/05/13 01:21:30;;;;;;;4.7;4.3;;;;;;;7.9;80.28809;932.2706;;;;
2020/05/13 01:23:41;;;;;;;6;5.2;;;;;;;7.76;81.48438;932.2166;;;;
2020/05/13 01:26:06;;;;;;;5.4;4.5;;;;;;;7.92;81.0293;932.2906;;;;
2020/05/13 01:28:33;;;;;;;4.6;4.2;;;;;;;7.97;80.6748;932.318;;;;
2020/05/13 01:30:56;;;;;;;5.3;4.3;;;;;;;7.98;80.84863;932.3014;;;;
2020/05/13 01:33:21;;;;;;;7.6;4.4;;;;;;;8.08;80.19727;932.382;;;;
2020/05/13 01:35:47;;;;;;;5.2;4.2;;;;;;;8.04;80.12988;932.4339;;;;
2020/05/13 01:38:13;;;;;;;4.9;4.4;;;;;;;7.86;80.81348;932.3977;;;;
2020/05/13 01:40:50;;;;;;;4.3;3.9;;;;;;;7.96;80.60449;932.2925;;;;
2020/05/13 01:45:48;;;;;;;4.3;3.9;;;;;;;7.98;79.98438;932.2467;;;;
2020/05/13 01:48:02;;;;;;;7.2;4.1;;;;;;;7.87;80.53125;932.2972;;;;
2020/05/13 01:50:27;;;;;;;4.5;3.6;;;;;;;7.9;80.45703;932.2888;;;;
2020/05/13 01:52:57;;;;;;;4.6;4;;;;;;;7.86;80.74512;932.2598;;;;
2020/05/13 01:55:34;;;;;;;4.2;3.8;;;;;;;7.86;80.97168;932.2615;;;;
2020/05/13 01:57:52;;;;;;;5.1;4.6;;;;;;;7.69;81.90527;932.269;;;;
2020/05/13 02:00:19;;;;;;;4.5;4;;;;;;;7.84;81.50195;932.3643;;;;
2020/05/13 02:02:36;;;;;;;4.7;4.1;;;;;;;7.87;81.3916;932.4232;;;;
2020/05/13 02:05:05;;;;;;;4.6;4.2;;;;;;;7.89;81.30664;932.3228;;;;
2020/05/13 02:07:29;;;;;;;4.9;4.2;;;;;;;7.87;81.80176;932.1364;;;;
2020/05/13 02:10:24;;;;;;;6.3;4.5;;;;;;;7.99;81.2793;932.3078;;;;
2020/05/13 02:12:17;;;;;;;5;4.4;;;;;;;7.91;81.6748;932.3214;;;;
2020/05/13 02:14:44;;;;;;;4.9;4.4;;;;;;;7.84;82.43262;932.3342;;;;
2020/05/13 02:17:30;;;;;;;5.6;4.5;;;;;;;7.87;82.9043;932.3433;;;;
2020/05/13 02:22:21;;;;;;;4.9;4.4;;;;;;;7.72;82.5332;932.3105;;;;
2020/05/13 02:24:33;;;;;;;5.1;4.6;;;;;;;7.72;82.95215;932.3904;;;;
2020/05/13 02:27:03;;;;;;;5.3;4.8;;;;;;;7.71;83.09863;932.4023;;;;
2020/05/13 02:34:14;;;;;;;4.9;4.4;;;;;;;7.85;81.94824;932.3035;;;;
2020/05/13 02:37:16;;;;;;;5.2;4.3;;;;;;;7.78;81.88672;932.2747;;;;
2020/05/13 02:39:27;;;;;;;6.5;4.4;;;;;;;7.73;82.12793;932.2433;;;;
2020/05/13 02:41:42;;;;;;;5;3.9;;;;;;;7.78;82.05762;932.3483;;;;
2020/05/13 02:43:54;;;;;;;7;4.2;;;;;;;7.82;82.12305;932.3173;;;;
2020/05/13 02:46:20;;;;;;;5.4;4.2;;;;;;;7.85;82.04688;932.228;;;;
2020/05/13 02:48:50;;;;;;;5.6;4.4;;;;;;;7.79;83.14844;932.2534;;;;
2020/05/13 02:51:10;;;;;;;5.5;4.2;;;;;;;7.82;82.49512;932.3315;;;;
2020/05/13 02:53:46;;;;;;;5;4.3;;;;;;;7.91;82.55762;932.2999;;;;
2020/05/13 02:58:26;;;;;;;4;3.6;;;;;;;8.02;81.97754;932.2783;;;;
2020/05/13 03:00:51;;;;;;;5;3.8;;;;;;;8.04;81.82324;932.2651;;;;
2020/05/13 03:03:22;;;;;;;3.7;3.4;;;;;;;7.99;81.4502;932.1747;;;;
2020/05/13 03:08:28;;;;;;;3.9;3.5;;;;;;;7.82;82.05469;932.2128;;;;
2020/05/13 03:10:39;;;;;;;5.1;3.7;;;;;;;7.84;82.08984;932.0734;;;;
2020/05/13 03:13:05;;;;;;;4.6;4;;;;;;;7.83;82.21484;932.0535;;;;
2020/05/13 03:17:55;;;;;;;5.2;3.9;;;;;;;7.51;83.33008;932.1273;;;;
2020/05/13 03:20:20;;;;;;;4.3;3.9;;;;;;;;;;;;;
2020/05/13 03:22:46;;;;;;;7.6;4.9;;;;;;;;;;;;;
2020/05/13 03:30:11;;;;;;;7.6;4.7;;;;;;;;;;;;;
2020/05/13 03:32:27;;;;;;;5.4;4.8;;;;;;;;;;;;;
2020/05/13 03:35:00;;;;;;;5.4;4.3;;;;;;;;;;;;;
2020/05/13 03:37:30;;;;;;;4.4;4;;;;;;;;;;;;;
2020/05/13 03:39:44;;;;;;;3.7;3.4;;;;;;;;;;;;;
2020/05/13 03:42:08;;;;;;;4.1;3.5;;;;;;;;;;;;;
2020/05/13 03:44:33;;;;;;;4;3.6;;;;;;;;;;;;;
2020/05/13 03:46:58;;;;;;;3.7;3.4;;;;;;;;;;;;;
2020/05/13 03:49:24;;;;;;;4.8;3.7;;;;;;;;;;;;;
2020/05/13 03:51:53;;;;;;;4.3;3.3;;;;;;;;;;;;;
2020/05/13 03:54:32;;;;;;;4.5;3.6;;;;;;;;;;;;;
2020/05/13 03:56:44;;;;;;;5.6;3.6;;;;;;;;;;;;;
2020/05/13 03:59:04;;;;;;;4.6;3.5;;;;;;;;;;;;;
2020/05/13 04:02:34;;;;;;;5.6;4.1;;;;;;;8.24;85.05273;932.4113;;;;
2020/05/13 04:04:55;;;;;;;4.3;3.9;;;;;;;8.14;85.54395;932.231;;;;
2020/05/13 04:07:23;;;;;;;4.5;4;;;;;;;8.3;85.28125;932.3619;;;;
2020/05/13 04:09:52;;;;;;;5.2;3.3;;;;;;;8.4;84.82129;932.3709;;;;
2020/05/13 04:12:12;;;;;;;4.2;3.8;;;;;;;8.45;85.30957;932.4509;;;;
2020/05/13 04:14:37;;;;;;;4.3;3.8;;;;;;;8.52;84.82422;932.5388;;;;
2020/05/13 04:17:19;;;;;;;5.1;4.7;;;;;;;8.48;85.55566;932.5242;;;;
2020/05/13 04:19:28;;;;;;;5.8;4.7;;;;;;;8.49;85.58008;932.5131;;;;
2020/05/13 04:21:54;;;;;;;4.8;4.3;;;;;;;8.46;86.37012;932.5193;;;;
2020/05/13 04:24:20;;;;;;;5.2;4.5;;;;;;;8.49;85.875;932.5369;;;;
2020/05/13 04:26:45;;;;;;;5.4;4.8;;;;;;;8.54;86.19336;932.485;;;;
2020/05/13 04:29:10;;;;;;;5;4.5;;;;;;;8.64;85.57422;932.5145;;;;
2020/05/13 04:31:35;;;;;;;4.6;4.2;;;;;;;8.71;85.36133;932.6103;;;;
2020/05/13 04:34:00;;;;;;;5.6;4.4;;;;;;;8.76;85.09766;932.7313;;;;
2020/05/13 04:36:25;;;;;;;5.8;5.2;;;;;;;8.73;84.9668;932.6937;;;;
2020/05/13 04:38:50;;;;;;;5.9;5.3;;;;;;;8.76;85.25684;932.6082;;;;
2020/05/13 04:46:38;;;;;;;7.2;5.2;;;;;;;8.79;84.375;932.6545;;;;
2020/05/13 04:48:49;;;;;;;7.2;5.8;;;;;;;8.75;84.89063;932.3804;;;;
2020/05/13 04:51:12;;;;;;;5.8;5.3;;;;;;;8.79;85.13867;932.5616;;;;
2020/05/13 04:53:36;;;;;;;8.5;5.9;;;;;;;8.62;85.74121;932.712;;;;
2020/05/13 04:56:01;;;;;;;5.9;5.4;;;;;;;8.76;85.50684;932.6035;;;;
2020/05/13 04:58:26;;;;;;;7;5.7;;;;;;;8.81;85.67676;932.7367;;;;
2020/05/13 05:00:51;;;;;;;7.1;5.4;;;;;;;8.87;85.54199;932.6061;;;;
2020/05/13 05:03:16;;;;;;;6;5.4;;;;;;;8.9;84.77344;932.6936;;;;
2020/05/13 05:05:42;;;;;;;5.7;5.2;;;;;;;8.99;84.92773;932.5068;;;;
2020/05/13 05:08:07;;;;;;;6;5.4;;;;;;;9.05;85.06543;932.3558;;;;
2020/05/13 05:10:33;;;;;;;6.3;5.7;;;;;;;9.07;84.58008;932.3622;;;;
2020/05/13 05:12:58;;;;;;;7.1;5.4;;;;;;;9.13;84.78516;932.4269;;;;
2020/05/13 05:15:28;;;;;;;9.7;5.7;;;;;;;9.19;84.7168;932.586;;;;
2020/05/13 05:17:53;;;;;;;8.1;5.4;;;;;;;9.22;84.75781;932.4864;;;;
2020/05/13 05:20:21;;;;;;;5.9;5.3;;;;;;;9.3;84.28223;932.5694;;;;
2020/05/13 05:22:46;;;;;;;7.8;6.5;;;;;;;;;;;;;
2020/05/13 05:25:11;;;;;;;7;6.3;;;;;;;;;;;;;
2020/05/13 05:27:36;;;;;;;9;7.1;;;;;;;;;;;;;
2020/05/13 05:30:01;;;;;;;7.9;7.1;;;;;;;;;;;;;
2020/05/13 05:34:55;;;;;;;7.6;5.7;;;;;;;;;;;;;
2020/05/13 05:37:19;;;;;;;7;5.6;;;;;;;;;;;;;
2020/05/13 05:39:42;;;;;;;6.7;6;;;;;;;;;;;;;
2020/05/13 05:42:07;;;;;;;7.5;6.4;;;;;;;;;;;;;
2020/05/13 05:44:33;;;;;;;9;7.2;;;;;;;;;;;;;
2020/05/13 05:46:58;;;;;;;8.2;7.4;;;;;;;;;;;;;
2020/05/13 05:49:23;;;;;;;7;6.4;;;;;;;;;;;;;
2020/05/13 05:51:48;;;;;;;7;6.3;;;;;;;;;;;;;
2020/05/13 05:54:13;;;;;;;7.2;6.5;;;;;;;;;;;;;
2020/05/13 05:56:38;;;;;;;7.2;6.6;;;;;;;;;;;;;
2020/05/13 05:59:04;;;;;;;7.2;6.5;;;;;;;;;;;;;
2020/05/13 06:01:29;;;;;;;6.8;6.1;;;;;;;;;;;;;
2020/05/13 06:03:54;;;;;;;7.4;6.7;;;;;;;;;;;;;
2020/05/13 06:06:19;;;;;;;7.6;6.6;;;;;;;;;;;;;
2020/05/13 06:08:44;;;;;;;7.5;6.8;;;;;;;;;;;;;
2020/05/13 06:11:09;;;;;;;6.5;5.9;;;;;;;;;;;;;
2020/05/13 06:13:34;;;;;;;7;6.3;;;;;;;;;;;;;
2020/05/13 06:15:59;;;;;;;9;6.6;;;;;;;;;;;;;
2020/05/13 06:18:25;;;;;;;6.8;6.2;;;;;;;;;;;;;
2020/05/13 06:20:50;;;;;;;6.8;6.1;;;;;;;;;;;;;
2020/05/13 06:23:17;;;;;;;7.1;5.8;;;;;;;;;;;;;
2020/05/13 06:25:40;;;;;;;6.7;6;;;;;;;;;;;;;
2020/05/13 06:28:06;;;;;;;7.8;7.1;;;;;;;;;;;;;
2020/05/13 06:30:31;;;;;;;7.3;6.6;;;;;;;;;;;;;
2020/05/13 06:32:56;;;;;;;6.4;5.8;;;;;;;;;;;;;
2020/05/13 06:35:21;;;;;;;6.6;5.9;;;;;;;;;;;;;
2020/05/13 06:37:46;;;;;;;6.3;5.7;;;;;;;;;;;;;
2020/05/13 06:40:11;;;;;;;5.8;5.2;;;;;;;;;;;;;
2020/05/13 06:42:36;;;;;;;5.9;5.3;;;;;;;;;;;;;
2020/05/13 06:45:01;;;;;;;5.6;5;;;;;;;;;;;;;
2020/05/13 06:47:26;;;;;;;5.2;4.7;;;;;;;;;;;;;
2020/05/13 06:49:59;;;;;;;5.5;4.5;;;;;;;;;;;;;
2020/05/13 06:57:23;;;;;;;7.4;5.6;;;;;;;;;;;;;
2020/05/13 06:59:33;;;;;;;6.5;5.8;;;;;;;;;;;;;
2020/05/13 07:07:33;;;;;;;7.7;7;;;;;;;;;;;;;
2020/05/13 07:09:40;;;;;;;7.2;6.5;;;;;;;;;;;;;
2020/05/13 07:14:43;;;;;;;6.9;6.2;;;;;;;;;;;;;
2020/05/13 07:19:39;;;;;;;7.1;6.5;;;;;;;;;;;;;
2020/05/13 07:21:20;;;;;;;7.2;6.5;;;;;;;;;;;;;
2020/05/13 07:23:45;;;;;;;7.3;6.6;;;;;;;;;;;;;
2020/05/13 07:26:10;;;;;;;7.6;6.8;;;;;;;;;;;;;
2020/05/13 07:28:35;;;;;;;8;7.2;;;;;;;;;;;;;
2020/05/13 07:31:00;;;;;;;8;7.3;;;;;;;;;;;;;
2020/05/13 07:33:25;;;;;;;8.5;7.7;;;;;;;;;;;;;
2020/05/13 07:35:50;;;;;;;8.4;7.7;;;;;;;;;;;;;
2020/05/13 07:38:15;;;;;;;8.6;7.6;;;;;;;;;;;;;
2020/05/13 07:40:40;;;;;;;8.5;7.5;;;;;;;;;;;;;
2020/05/13 07:43:05;;;;;;;9.4;7.9;;;;;;;;;;;;;
2020/05/13 07:45:30;;;;;;;8.5;7.7;;;;;;;;;;;;;
2020/05/13 07:47:55;;;;;;;8.7;7.3;;;;;;;;;;;;;
2020/05/13 07:50:23;;;;;;;8.1;7.4;;;;;;;;;;;;;
2020/05/13 07:52:48;;;;;;;8.7;7.5;;;;;;;;;;;;;
2020/05/13 07:55:13;;;;;;;8.5;7.5;;;;;;;;;;;;;
2020/05/13 07:57:38;;;;;;;8.1;7.3;;;;;;;;;;;;;
2020/05/13 08:00:04;;;;;;;8.6;7.8;;;;;;;;;;;;;
2020/05/13 08:02:29;;;;;;;8.9;8;;;;;;;;;;;;;
2020/05/13 08:04:55;;;;;;;8.1;7.4;;;;;;;;;;;;;
2020/05/13 08:07:19;;;;;;;8.6;7.7;;;;;;;;;;;;;
2020/05/13 08:09:44;;;;;;;8.8;7.9;;;;;;;;;;;;;
2020/05/13 08:12:10;;;;;;;8.3;7.6;;;;;;;;;;;;;
2020/05/13 08:14:35;;;;;;;7.7;6.9;;;;;;;;;;;;;
2020/05/13 08:17:00;;;;;;;7.6;6.9;;;;;;;;;;;;;
2020/05/13 08:19:26;;;;;;;6.4;5.8;;;;;;;;;;;;;
2020/05/13 08:21:51;;;;;;;6.7;6.1;;;;;;;;;;;;;
2020/05/13 08:24:16;;;;;;;6.6;6;;;;;;;;;;;;;
2020/05/13 08:26:41;;;;;;;7;6.3;;;;;;;;;;;;;
2020/05/13 08:29:06;;;;;;;7.6;6;;;;;;;;;;;;;
2020/05/13 08:31:31;;;;;;;6.4;5.6;;;;;;;;;;;;;
2020/05/13 08:33:57;;;;;;;6.6;5.8;;;;;;;;;;;;;
2020/05/13 08:36:22;;;;;;;6.6;6;;;;;;;;;;;;;
2020/05/13 08:38:49;;;;;;;9.1;7.7;;;;;;;;;;;;;
2020/05/13 08:41:13;;;;;;;9.4;7;;;;;;;;;;;;;
2020/05/13 08:43:38;;;;;;;7.6;6.7;;;;;;;;;;;;;
2020/05/13 08:46:03;;;;;;;7.8;7.1;;;;;;;;;;;;;
2020/05/13 08:48:28;;;;;;;7;5.9;;;;;;;;;;;;;
2020/05/13 08:50:54;;;;;;;6.9;6.2;;;;;;;;;;;;;
2020/05/13 08:53:19;;;;;;;7.2;6.5;;;;;;;;;;;;;
2020/05/13 08:55:45;;;;;;;6.8;6.2;;;;;;;;;;;;;
2020/05/13 08:58:09;;;;;;;7;6.4;;;;;;;;;;;;;
2020/05/13 09:00:34;;;;;;;7.2;6.5;;;;;;;;;;;;;
2020/05/13 09:03:00;;;;;;;7.4;6.7;;;;;;;;;;;;;
2020/05/13 09:05:25;;;;;;;7.7;6.5;;;;;;;;;;;;;
2020/05/13 09:07:50;;;;;;;7.3;6.6;;;;;;;;;;;;;
2020/05/13 09:10:15;;;;;;;8;7.2;;;;;;;;;;;;;
2020/05/13 09:12:40;;;;;;;7.9;7.1;;;;;;;;;;;;;
2020/05/13 09:15:08;;;;;;;7.7;6.9;;;;;;;;;;;;;
2020/05/13 09:17:34;;;;;;;8.2;7.4;;;;;;;;;;;;;
2020/05/13 09:19:59;;;;;;;7.7;7;;;;;;;;;;;;;
2020/05/13 09:22:24;;;;;;;10.5;8.9;;;;;;;;;;;;;
2020/05/13 09:24:49;;;;;;;8.2;7.3;;;;;;;;;;;;;
2020/05/13 09:27:14;;;;;;;11.3;8.2;;;;;;;;;;;;;
2020/05/13 09:29:39;;;;;;;8.3;7.5;;;;;;;;;;;;;
2020/05/13 09:32:04;;;;;;;9.8;7.5;;;;;;;;;;;;;
2020/05/13 09:34:30;;;;;;;8.1;7.4;;;;;;;;;;;;;
2020/05/13 09:36:55;;;;;;;8;7.2;;;;;;;;;;;;;
2020/05/13 09:39:20;;;;;;;8;7.3;;;;;;;;;;;;;
2020/05/13 09:41:45;;;;;;;8;7.3;;;;;;;;;;;;;
2020/05/13 09:44:10;;;;;;;8.4;7.5;;;;;;;;;;;;;
2020/05/13 09:46:39;;;;;;;8.6;7.8;;;;;;;;;;;;;
2020/05/13 09:50:22;;;;;;;8.6;7.8;;;;;;;;;;;;;
2020/05/13 09:51:27;;;;;;;8.5;7.7;;;;;;;;;;;;;
2020/05/13 09:53:51;;;;;;;9.2;8.3;;;;;;;;;;;;;
2020/05/13 09:56:24;;;;;;;14.8;9.4;;;;;;;;;;;;;
2020/05/13 09:58:52;;;;;;;10.7;8.7;;;;;;;;;;;;;
2020/05/13 10:01:14;;;;;;;11.7;9.2;;;;;;;;;;;;;
2020/05/13 10:03:38;;;;;;;9.7;8.7;;;;;;;;;;;;;
2020/05/13 10:06:24;;;;;;;11.5;9;;;;;;;;;;;;;
2020/05/13 10:10:50;;;;;;;9.9;8.9;;;;;;;;;;;;;
2020/05/13 10:13:13;;;;;;;9.6;8.7;;;;;;;;;;;;;
2020/05/13 10:15:38;;;;;;;11.1;8.9;;;;;;;;;;;;;
2020/05/13 10:18:03;;;;;;;9.5;8.6;;;;;;;;;;;;;
2020/05/13 10:20:29;;;;;;;10.3;9;;;;;;;;;;;;;
2020/05/13 10:22:54;;;;;;;8.8;8;;;;;;;;;;;;;
2020/05/13 10:25:19;;;;;;;9.2;8.4;;;;;;;;;;;;;
2020/05/13 10:27:44;;;;;;;9.3;8.4;;;;;;;;;;;;;
2020/05/13 10:30:11;;;;;;;9.4;8.4;;;;;;;;;;;;;
2020/05/13 10:32:50;;;;;;;9;8.2;;;;;;;;;;;;;
2020/05/13 10:35:20;;;;;;;9.8;8.8;;;;;;;;;;;;;
2020/05/13 10:37:40;;;;;;;9.4;8.5;;;;;;;;;;;;;
2020/05/13 10:42:41;;;;;;;9.6;8.7;;;;;;;;;;;;;
2020/05/13 10:44:55;;;;;;;9.7;8.8;;;;;;;;;;;;;
2020/05/13 10:50:25;;;;;;;10.1;9.1;;;;;;;;;;;;;
2020/05/13 10:52:21;;;;;;;10.7;9.7;;;;;;;;;;;;;
2020/05/13 11:09:25;;;;;;;10.1;9.1;;;;;;;;;;;;;
2020/05/13 11:11:33;;;;;;;10.4;9.4;;;;;;;;;;;;;
2020/05/13 11:16:16;;;;;;;9.9;9;;;;;;;;;;;;;
2020/05/13 11:18:51;;;;;;;10.2;9.2;;;;;;;;;;;;;
2020/05/13 11:21:23;;;;;;;9.4;8.5;;;;;;;;;;;;;
2020/05/13 11:30:58;;;;;;;10.2;9.2;;;;;;;;;;;;;
2020/05/13 11:40:33;;;;;;;11.3;9.7;;;;;;;;;;;;;
2020/05/13 11:43:02;;;;;;;10.5;9.3;;;;;;;;;;;;;
2020/05/13 11:50:14;;;;;;;10.3;9.2;;;;;;;;;;;;;
2020/05/13 11:52:26;;;;;;;12.8;8.4;;;;;;;;;;;;;
2020/05/13 11:54:51;;;;;;;10.1;8.6;;;;;;;;;;;;;
2020/05/13 11:57:16;;;;;;;11.1;8.8;;;;;;;;;;;;;
2020/05/13 11:59:41;;;;;;;12.4;8.6;;;;;;;;;;;;;
2020/05/13 12:02:06;;;;;;;9.3;8.4;;;;;;;;;;;;;
2020/05/13 12:04:31;;;;;;;10.5;9.4;;;;;;;;;;;;;
2020/05/13 12:06:57;;;;;;;10;9;;;;;;;;;;;;;
2020/05/13 12:09:50;;;;;;;9.9;8.9;;;;;;;;;;;;;
2020/05/13 12:12:15;;;;;;;9.4;8;;;;;;;;;;;;;
2020/05/13 12:14:40;;;;;;;10.2;8.1;;;;;;;;;;;;;
2020/05/13 12:17:05;;;;;;;10.8;8.6;;;;;;;;;;;;;
2020/05/13 12:19:30;;;;;;;9.4;8.3;;;;;;;;;;;;;
2020/05/13 12:21:56;;;;;;;8.7;7.9;;;;;;;;;;;;;
2020/05/13 12:24:21;;;;;;;9.4;8.5;;;;;;;;;;;;;
2020/05/13 12:26:46;;;;;;;10;9;;;;;;;;;;;;;
2020/05/13 12:29:11;;;;;;;11.9;9.8;;;;;;;;;;;;;
2020/05/13 12:31:38;;;;;;;13;9.7;;;;;;;;;;;;;
2020/05/13 12:34:03;;;;;;;12.1;9.3;;;;;;;;;;;;;
2020/05/13 12:36:29;;;;;;;9.9;8.9;;;;;;;;;;;;;
2020/05/13 12:38:54;;;;;;;10.2;9.1;;;;;;;;;;;;;
2020/05/13 12:41:20;;;;;;;9.7;8.7;;;;;;;;;;;;;
2020/05/13 12:43:45;;;;;;;9.6;8.6;;;;;;;;;;;;;
2020/05/13 12:46:11;;;;;;;10.9;9.7;;;;;;;;;;;;;
2020/05/13 12:48:36;;;;;;;10.6;9;;;;;;;;;;;;;
2020/05/13 12:51:02;;;;;;;9.7;8.7;;;;;;;;;;;;;
2020/05/13 12:53:28;;;;;;;9.2;8.3;;;;;;;;;;;;;
2020/05/13 12:55:54;;;;;;;10.6;8.4;;;;;;;;;;;;;
2020/05/13 12:58:20;;;;;;;11.5;8.8;;;;;;;;;;;;;
2020/05/13 13:00:46;;;;;;;9.1;8.1;;;;;;;;;;;;;
2020/05/13 13:03:11;;;;;;;8.1;6.5;;;;;;;;;;;;;
2020/05/13 13:05:36;;;;;;;8.8;6.1;;;;;;;;;;;;;
2020/05/13 13:08:01;;;;;;;8;5.5;;;;;;;;;;;;;
2020/05/13 13:10:26;;;;;;;9.2;5.4;;;;;;;;;;;;;
2020/05/13 13:12:52;;;;;;;5.2;4.7;;;;;;;;;;;;;
2020/05/13 13:15:22;;;;;;;5.7;4.5;;;;;;;;;;;;;
2020/05/13 13:17:47;;;;;;;5.3;4.5;;;;;;;;;;;;;
2020/05/13 13:20:12;;;;;;;15.6;7.6;;;;;;;;;;;;;
2020/05/13 13:22:39;;;;;;;9.6;7.9;;;;;;;;;;;;;
2020/05/13 13:25:03;;;;;;;11.9;8.8;;;;;;;;;;;;;
2020/05/13 13:27:29;;;;;;;10.1;8.4;;;;;;;;;;;;;
2020/05/13 13:29:54;;;;;;;8.7;7.9;;;;;;;;;;;;;
2020/05/13 13:32:20;;;;;;;9.1;7.6;;;;;;;;;;;;;
2020/05/13 13:34:46;;;;;;;10.1;7.6;;;;;;;;;;;;;
2020/05/13 13:37:11;;;;;;;8.1;7.3;;;;;;;;;;;;;
2020/05/13 13:39:36;;;;;;;7.9;6.9;;;;;;;;;;;;;
2020/05/13 13:42:01;;;;;;;7.9;7;;;;;;;;;;;;;
2020/05/13 13:44:28;;;;;;;7.6;6.8;;;;;;;;;;;;;
2020/05/13 13:46:53;;;;;;;7.8;7;;;;;;;;;;;;;
2020/05/13 13:49:18;;;;;;;8;7.2;;;;;;;;;;;;;
2020/05/13 13:51:43;;;;;;;8.2;6.8;;;;;;;;;;;;;
2020/05/13 13:54:08;;;;;;;7.4;6;;;;;;;;;;;;;
2020/05/13 13:56:33;;;;;;;7.6;6.9;;;;;;;;;;;;;
2020/05/13 13:58:59;;;;;;;8.1;7.3;;;;;;;;;;;;;
2020/05/13 14:01:36;;;;;;;8.8;7.9;;;;;;;;;;;;;
2020/05/13 14:04:10;;;;;;;8.7;7.9;;;;;;;;;;;;;
2020/05/13 14:06:15;;;;;;;9.9;8.1;;;;;;;;;;;;;
2020/05/13 14:08:39;;;;;;;10.1;8.9;;;;;;;;;;;;;
2020/05/13 14:11:04;;;;;;;10.4;9.4;;;;;;;;;;;;;
2020/05/13 14:13:30;;;;;;;11;10;;;;;;;;;;;;;
2020/05/13 14:15:55;;;;;;;10.9;9.9;;;;;;;;;;;;;
2020/05/13 14:18:20;;;;;;;11.2;10.1;;;;;;;;;;;;;
2020/05/13 14:20:45;;;;;;;13.1;10.3;;;;;;;;;;;;;
2020/05/13 14:23:10;;;;;;;11.8;10.7;;;;;;;;;;;;;
2020/05/13 14:25:35;;;;;;;13;11.7;;;;;;;;;;;;;
2020/05/13 14:28:01;;;;;;;13.3;12;;;;;;;;;;;;;
2020/05/13 14:30:26;;;;;;;14.3;11.9;;;;;;;;;;;;;
2020/05/13 14:32:51;;;;;;;13.9;12.6;;;;;;;;;;;;;
2020/05/13 14:35:16;;;;;;;15.1;13.6;;;;;;;;;;;;;
2020/05/13 14:37:43;;;;;;;14.3;12.9;;;;;;;;;;;;;
2020/05/13 14:40:08;;;;;;;16.4;13.5;;;;;;;;;;;;;
2020/05/13 14:42:34;;;;;;;15.6;14.1;;;;;;;;;;;;;
2020/05/13 14:44:59;;;;;;;14.9;13.5;;;;;;;;;;;;;
2020/05/13 14:47:26;;;;;;;16.2;14.6;;;;;;;;;;;;;
2020/05/13 14:49:51;;;;;;;19.9;17.8;;;;;;;;;;;;;
2020/05/13 14:52:16;;;;;;;16.7;14.9;;;;;;;;;;;;;
2020/05/13 14:54:41;;;;;;;16.4;14.8;;;;;;;;;;;;;
2020/05/13 14:57:06;;;;;;;16.1;14.5;;;;;;;;;;;;;
2020/05/13 14:59:31;;;;;;;15.4;13.7;;;;;;;;;;;;;
2020/05/13 15:01:56;;;;;;;16.3;14.7;;;;;;;;;;;;;
2020/05/13 15:04:22;;;;;;;14.7;13.1;;;;;;;;;;;;;
2020/05/13 15:06:47;;;;;;;14.7;13.2;;;;;;;;;;;;;
2020/05/13 15:09:13;;;;;;;14.1;12.8;;;;;;;;;;;;;
2020/05/13 15:11:38;;;;;;;13.6;12.3;;;;;;;;;;;;;
2020/05/13 15:14:04;;;;;;;14.3;13;;;;;;;;;;;;;
2020/05/13 15:16:29;;;;;;;13.8;12.5;;;;;;;;;;;;;
2020/05/13 15:18:55;;;;;;;14.4;12.9;;;;;;;;;;;;;
2020/05/13 15:21:20;;;;;;;14.6;13.2;;;;;;;;;;;;;
2020/05/13 15:23:46;;;;;;;15;13.5;;;;;;;;;;;;;
2020/05/13 15:26:11;;;;;;;14.2;12.9;;;;;;;;;;;;;
2020/05/13 15:28:37;;;;;;;16.9;15.1;;;;;;;;;;;;;
2020/05/13 15:31:02;;;;;;;15.7;14.1;;;;;;;;;;;;;
2020/05/13 15:33:28;;;;;;;16.3;14.5;;;;;;;;;;;;;
2020/05/13 15:35:53;;;;;;;15.6;14.1;;;;;;;;;;;;;
2020/05/13 15:38:19;;;;;;;15.8;14.3;;;;;;;;;;;;;
2020/05/13 15:40:44;;;;;;;15.8;14.3;;;;;;;;;;;;;
2020/05/13 15:43:09;;;;;;;17.9;16.1;;;;;;;;;;;;;
2020/05/13 15:45:34;;;;;;;16.6;14.8;;;;;;;;;;;;;
2020/05/13 15:47:59;;;;;;;16.4;14.7;;;;;;;;;;;;;
2020/05/13 15:50:24;;;;;;;15.4;13.9;;;;;;;;;;;;;
2020/05/13 15:52:49;;;;;;;15.2;13.7;;;;;;;;;;;;;
2020/05/13 15:55:14;;;;;;;15.8;14.2;;;;;;;;;;;;;
2020/05/13 15:57:41;;;;;;;16;14.5;;;;;;;;;;;;;
2020/05/13 16:00:06;;;;;;;16.1;14.5;;;;;;;;;;;;;
2020/05/13 16:02:32;;;;;;;16.8;15.2;;;;;;;;;;;;;
2020/05/13 16:04:57;;;;;;;17.1;15.2;;;;;;;;;;;;;
2020/05/13 16:07:23;;;;;;;16.4;14.8;;;;;;;;;;;;;
2020/05/13 16:09:48;;;;;;;17.6;16;;;;;;;;;;;;;
2020/05/13 16:12:14;;;;;;;18.4;16.5;;;;;;;;;;;;;
2020/05/13 16:14:40;;;;;;;18.3;16.4;;;;;;;;;;;;;
2020/05/13 16:17:06;;;;;;;18.3;16.4;;;;;;;;;;;;;
2020/05/13 16:19:31;;;;;;;18.5;16.7;;;;;;;;;;;;;
2020/05/13 16:21:57;;;;;;;19.3;17.4;;;;;;;;;;;;;
2020/05/13 16:24:22;;;;;;;19.5;17.7;;;;;;;;;;;;;
2020/05/13 16:26:47;;;;;;;20.3;17.5;;;;;;;;;;;;;
2020/05/13 16:29:12;;;;;;;20;18.1;;;;;;;;;;;;;
2020/05/13 16:31:51;;;;;;;20;18.1;;;;;;;;;;;;;
2020/05/13 16:34:06;;;;;;;21.8;19.6;;;;;;;;;;;;;
2020/05/13 16:36:28;;;;;;;20.3;18.3;;;;;;;;;;;;;
2020/05/13 16:38:53;;;;;;;21.1;19.1;;;;;;;;;;;;;
2020/05/13 16:41:18;;;;;;;20.3;18.4;;;;;;;;;;;;;
2020/05/13 16:43:43;;;;;;;19.6;17.5;;;;;;;;;;;;;
2020/05/13 16:46:08;;;;;;;19.9;17.9;;;;;;;;;;;;;
2020/05/13 16:48:33;;;;;;;19.9;18;;;;;;;;;;;;;
2020/05/13 16:50:59;;;;;;;19.8;17.8;;;;;;;;;;;;;
2020/05/13 16:53:24;;;;;;;20.2;18.1;;;;;;;;;;;;;
2020/05/13 16:55:51;;;;;;;20.1;18.2;;;;;;;;;;;;;
2020/05/13 16:58:16;;;;;;;21.1;19;;;;;;;;;;;;;
2020/05/13 17:00:41;;;;;;;20.9;18.9;;;;;;;;;;;;;
2020/05/13 17:03:06;;;;;;;21.5;19.3;;;;;;;;;;;;;
2020/05/13 17:05:32;;;;;;;22.3;20.1;;;;;;;;;;;;;
2020/05/13 17:07:57;;;;;;;22;19.8;;;;;;;;;;;;;
2020/05/13 17:10:23;;;;;;;22;19.9;;;;;;;;;;;;;
2020/05/13 17:12:48;;;;;;;21.6;19.5;;;;;;;;;;;;;
2020/05/13 17:15:14;;;;;;;22.7;20.2;;;;;;;;;;;;;
2020/05/13 17:17:39;;;;;;;21.5;19.5;;;;;;;;;;;;;
2020/05/13 17:20:05;;;;;;;21.7;19.7;;;;;;;;;;;;;
2020/05/13 17:22:29;;;;;;;21.9;19.7;;;;;;;;;;;;;
2020/05/13 17:24:54;;;;;;;22.1;20;;;;;;;;;;;;;
2020/05/13 17:27:19;;;;;;;22.7;20.5;;;;;;;;;;;;;
2020/05/13 17:29:45;;;;;;;22.2;20.2;;;;;;;;;;;;;
2020/05/13 17:32:10;;;;;;;23.3;21.1;;;;;;;;;;;;;
2020/05/13 17:34:35;;;;;;;22.7;20.5;;;;;;;;;;;;;
2020/05/13 17:37:00;;;;;;;24.2;21.9;;;;;;;;;;;;;
2020/05/13 17:39:26;;;;;;;24.2;21.9;;;;;;;;;;;;;
2020/05/13 17:41:51;;;;;;;24.7;22.4;;;;;;;;;;;;;
2020/05/13 17:44:17;;;;;;;24.7;22.2;;;;;;;;;;;;;
2020/05/13 17:46:41;;;;;;;25.6;22.9;;;;;;;;;;;;;
2020/05/13 17:49:07;;;;;;;26.5;24;;;;;;;;;;;;;
2020/05/13 17:51:32;;;;;;;25.1;22.8;;;;;;;;;;;;;
2020/05/13 17:53:57;;;;;;;25.5;23;;;;;;;;;;;;;
2020/05/13 17:56:22;;;;;;;26;23.5;;;;;;;;;;;;;
2020/05/13 17:58:47;;;;;;;26.5;23.9;;;;;;;;;;;;;
2020/05/13 18:01:13;;;;;;;25.7;23.1;;;;;;;;;;;;;
2020/05/13 18:03:38;;;;;;;25.5;22.9;;;;;;;;;;;;;
2020/05/13 18:06:14;;;;;;;25.8;23.3;;;;;;;;;;;;;
2020/05/13 18:11:02;;;;;;;25.8;23.2;;;;;;;;;;;;;
2020/05/13 18:13:34;;;;;;;27.2;24.4;;;;;;;;;;;;;
2020/05/13 18:16:33;;;;;;;25.6;23.2;;;;;;;;;;;;;
2020/05/13 18:20:41;;;;;;;26.4;23.8;;;;;;;;;;;;;
2020/05/13 18:23:01;;;;;;;27.1;24.5;;;;;;;;;;;;;
2020/05/13 18:25:26;;;;;;;26.9;24.4;;;;;;;;;;;;;
2020/05/13 18:27:51;;;;;;;26.9;24.3;;;;;;;;;;;;;
2020/05/13 18:30:16;;;;;;;27.6;24.8;;;;;;;;;;;;;
2020/05/13 18:32:41;;;;;;;27.5;24.8;;;;;;;;;;;;;
2020/05/13 18:35:07;;;;;;;26.5;23.9;;;;;;;;;;;;;
2020/05/13 18:37:32;;;;;;;28.1;25.4;;;;;;;;;;;;;
2020/05/13 18:39:57;;;;;;;28.3;25.3;;;;;;;;;;;;;
2020/05/13 18:42:22;;;;;;;28.3;25.5;;;;;;;;;;;;;
2020/05/13 18:44:48;;;;;;;29;26.2;;;;;;;;;;;;;
2020/05/13 18:47:13;;;;;;;28.9;26.1;;;;;;;;;;;;;
2020/05/13 18:49:38;;;;;;;28;25.3;;;;;;;;;;;;;
2020/05/13 18:52:04;;;;;;;28.9;26;;;;;;;;;;;;;
2020/05/13 18:54:29;;;;;;;29;26.3;;;;;;;;;;;;;
2020/05/13 18:56:54;;;;;;;27.5;24.8;;;;;;;;;;;;;
2020/05/13 18:59:19;;;;;;;27.3;24.7;;;;;;;;;;;;;
2020/05/13 19:01:44;;;;;;;25.9;23.3;;;;;;;;;;;;;
2020/05/13 19:04:09;;;;;;;26.4;23.7;;;;;;;;;;;;;
2020/05/13 19:06:35;;;;;;;27.4;24.6;;;;;;;;;;;;;
2020/05/13 19:09:00;;;;;;;27.3;24.3;;;;;;;;;;;;;
2020/05/13 19:11:25;;;;;;;25.3;22.8;;;;;;;;;;;;;
2020/05/13 19:13:57;;;;;;;25.9;23.3;;;;;;;;;;;;;
2020/05/13 19:16:33;;;;;;;25;22.5;;;;;;;;;;;;;
2020/05/13 19:19:02;;;;;;;25.1;22.7;;;;;;;;;;;;;
2020/05/13 19:21:11;;;;;;;24;21.7;;;;;;;;;;;;;
2020/05/13 19:23:31;;;;;;;25.4;22.8;;;;;;;;;;;;;
2020/05/13 19:25:56;;;;;;;23.7;21.4;;;;;;;;;;;;;
2020/05/13 19:28:21;;;;;;;24;21.5;;;;;;;;;;;;;
2020/05/13 19:30:47;;;;;;;24.1;21.7;;;;;;;;;;;;;
2020/05/13 19:33:12;;;;;;;25.2;22.6;;;;;;;;;;;;;
2020/05/13 19:35:37;;;;;;;24.2;21.8;;;;;;;;;;;;;
2020/05/13 19:38:03;;;;;;;23.8;21.4;;;;;;;;;;;;;
2020/05/13 19:40:28;;;;;;;24.2;21.9;;;;;;;;;;;;;
2020/05/13 19:42:54;;;;;;;24.5;21.9;;;;;;;;;;;;;
2020/05/13 19:45:21;;;;;;;24.1;21.6;;;;;;;;;;;;;
2020/05/13 19:47:46;;;;;;;24.2;21.8;;;;;;;;;;;;;
2020/05/13 19:50:11;;;;;;;24;21.7;;;;;;;;;;;;;
2020/05/13 19:52:37;;;;;;;24.1;21.8;;;;;;;;;;;;;
2020/05/13 19:55:02;;;;;;;23.9;21.6;;;;;;;;;;;;;
2020/05/13 19:57:27;;;;;;;23.7;21.4;;;;;;;;;;;;;
2020/05/13 19:59:52;;;;;;;23.3;21;;;;;;;;;;;;;
2020/05/13 20:02:17;;;;;;;23.5;21.2;;;;;;;;;;;;;
2020/05/13 20:04:42;;;;;;;22.7;20.5;;;;;;;;;;;;;
2020/05/13 20:07:08;;;;;;;24.3;21.9;;;;;;;;;;;;;
2020/05/13 20:09:33;;;;;;;23.4;21.2;;;;;;;;;;;;;